Terminal Aerodrome Forecast
Issued by NWS

Home | Current Version | Previous Version | Text Only | Print | Product List | Glossary On
Versions: 1 2 3 4 5 6 7 8 9 10 11 12 13 14 15 16
000
FTUS44 KMOB 202300
TAFBFM
TAF
KBFM 202338Z 2100/2124 02006KT P6SM FEW050 FEW250
     FM210900 09003KT 5SM BR FEW250
     FM211400 13007KT P6SM SCT030 BKN250
     FM212100 16007KT P6SM SCT250=

USA.gov is the U.S. government's official web portal to all federal, state and local government web resources and services.